Time;durP1;ratioP1;P1;durP2;ratioP2;P2;SDS_P1;SDS_P2;PMS_P1;PMS_P2;Temp;Humidity;BMP_temperature;BMP_pressure;BME280_temperature;BME280_humidity;BME280_pressure;Samples;Min_cycle;Max_cycle;Signal;HPM_P1;HPM_P2
2023/07/18 00:01:39;;;;;;;6.05;1.98;;;;;;;;;;5043913;28;20025;-49
2023/07/18 00:04:09;;;;;;;8.10;2.03;;;;;;;;;;5055917;28;20067;-52
2023/07/18 00:06:40;;;;;;;7.53;2.90;;;;;;;;;;5055207;28;20209;-49
2023/07/18 00:09:12;;;;;;;6.55;2.80;;;;;;;;;;5046037;28;20047;-50
2023/07/18 00:11:39;;;;;;;8.48;2.85;;;;;;;;;;5042786;28;20088;-50
2023/07/18 00:14:05;;;;;;;8.48;3.05;;;;;;;;;;5042569;28;20048;-46
2023/07/18 00:16:32;;;;;;;5.10;3.00;;;;;;;;;;5043460;28;20024;-46
2023/07/18 00:18:59;;;;;;;8.05;2.78;;;;;;;;;;5041853;28;20369;-47
2023/07/18 00:21:26;;;;;;;8.32;3.58;;;;;;;;;;5041708;28;20089;-51
2023/07/18 00:23:55;;;;;;;8.07;3.50;;;;;;;;;;5042114;28;20018;-53
2023/07/18 00:26:24;;;;;;;8.18;3.67;;;;;;;;;;5041428;28;20025;-50
2023/07/18 00:28:53;;;;;;;9.43;4.15;;;;;;;;;;5042283;28;20037;-48
2023/07/18 00:31:21;;;;;;;8.85;5.10;;;;;;;;;;5041285;28;20118;-51
2023/07/18 00:33:47;;;;;;;11.85;6.75;;;;;;;;;;5041855;28;20108;-51
2023/07/18 00:36:14;;;;;;;11.15;6.97;;;;;;;;;;5043262;28;20089;-46
2023/07/18 00:38:52;;;;;;;11.98;6.80;;;;;;;;;;5043453;28;20095;-55
2023/07/18 00:41:27;;;;;;;8.90;6.25;;;;;;;;;;5042766;28;20373;-47
2023/07/18 00:44:01;;;;;;;14.40;6.53;;;;;;;;;;5043221;28;20030;-50
2023/07/18 00:46:36;;;;;;;11.50;6.32;;;;;;;;;;5042946;28;20029;-57
2023/07/18 00:49:03;;;;;;;12.20;6.75;;;;;;;;;;5043780;28;20030;-51
2023/07/18 00:51:32;;;;;;;9.60;6.07;;;;;;;;;;5042979;28;20037;-55
2023/07/18 00:54:00;;;;;;;14.75;6.45;;;;;;;;;;5043281;28;20044;-50
2023/07/18 00:56:27;;;;;;;11.18;8.43;;;;;;;;;;5042773;28;20029;-54
2023/07/18 00:58:54;;;;;;;16.20;8.80;;;;;;;;;;5041570;28;20021;-53
2023/07/18 01:01:21;;;;;;;11.52;8.57;;;;;;;;;;5042633;28;20032;-55
2023/07/18 01:03:48;;;;;;;15.02;8.07;;;;;;;;;;5042772;28;20017;-56
2023/07/18 01:06:15;;;;;;;12.00;7.43;;;;;;;;;;5042816;28;20041;-57
2023/07/18 01:08:42;;;;;;;10.98;7.05;;;;;;;;;;5041416;28;20089;-56
2023/07/18 01:11:10;;;;;;;10.52;7.50;;;;;;;;;;5043064;28;20085;-56
2023/07/18 01:13:40;;;;;;;9.32;6.00;;;;;;;;;;5042581;28;20021;-54
2023/07/18 01:16:07;;;;;;;10.88;6.70;;;;;;;;;;5042356;28;20045;-48
2023/07/18 01:18:33;;;;;;;12.02;6.75;;;;;;;;;;5042436;28;20020;-49
2023/07/18 01:21:07;;;;;;;9.60;5.63;;;;;;;;;;5041652;28;20033;-49
2023/07/18 01:23:34;;;;;;;10.70;6.18;;;;;;;;;;5042035;28;20198;-45
2023/07/18 01:26:01;;;;;;;12.60;6.60;;;;;;;;;;5042450;28;20029;-48
2023/07/18 01:28:28;;;;;;;13.48;6.47;;;;;;;;;;5042520;28;20029;-49
2023/07/18 01:30:57;;;;;;;14.80;7.63;;;;;;;;;;5041859;28;20042;-48
2023/07/18 01:33:23;;;;;;;12.57;8.50;;;;;;;;;;5042186;28;20013;-49
2023/07/18 01:35:51;;;;;;;12.32;8.52;;;;;;;;;;5042243;28;20029;-47
2023/07/18 01:38:29;;;;;;;12.15;7.15;;;;;;;;;;5042283;28;20056;-59
2023/07/18 01:40:59;;;;;;;10.02;7.32;;;;;;;;;;5041922;28;20079;-51
2023/07/18 01:43:28;;;;;;;12.25;7.20;;;;;;;;;;5041978;28;20344;-51
2023/07/18 01:45:59;;;;;;;8.65;6.90;;;;;;;;;;5042214;28;20081;-46
2023/07/18 01:48:53;;;;;;;9.70;7.22;;;;;;;;;;5042877;28;20089;-53
2023/07/18 01:51:20;;;;;;;14.40;6.47;;;;;;;;;;5041032;28;20316;-54
2023/07/18 01:53:48;;;;;;;8.50;5.78;;;;;;;;;;5041730;28;20345;-59
2023/07/18 01:56:14;;;;;;;10.77;6.07;;;;;;;;;;5042188;28;20048;-51
2023/07/18 01:58:41;;;;;;;13.93;6.43;;;;;;;;;;5041734;28;20021;-53
2023/07/18 02:01:09;;;;;;;10.15;5.55;;;;;;;;;;5042479;28;20044;-56
2023/07/18 02:03:36;;;;;;;8.82;5.50;;;;;;;;;;5041876;28;20034;-54
2023/07/18 02:06:04;;;;;;;8.70;4.95;;;;;;;;;;5042088;28;20022;-55
2023/07/18 02:08:30;;;;;;;10.52;4.20;;;;;;;;;;5041563;28;20404;-56
2023/07/18 02:10:58;;;;;;;10.38;4.07;;;;;;;;;;5041939;28;20047;-56
2023/07/18 02:13:28;;;;;;;7.07;4.20;;;;;;;;;;5041593;28;20044;-55
2023/07/18 02:15:55;;;;;;;7.18;4.20;;;;;;;;;;5040359;28;20034;-58
2023/07/18 02:18:22;;;;;;;9.65;4.32;;;;;;;;;;5041371;28;20037;-50
2023/07/18 02:20:48;;;;;;;7.93;3.97;;;;;;;;;;5041805;28;20030;-49
2023/07/18 02:23:15;;;;;;;8.32;3.45;;;;;;;;;;5041372;28;20037;-53
2023/07/18 02:25:41;;;;;;;6.43;2.90;;;;;;;;;;5041874;28;20098;-56
2023/07/18 02:28:10;;;;;;;7.95;3.40;;;;;;;;;;5041531;28;20026;-59
2023/07/18 02:30:36;;;;;;;8.55;3.67;;;;;;;;;;5041706;28;20061;-55
2023/07/18 02:33:07;;;;;;;9.93;3.72;;;;;;;;;;5041336;28;20041;-57
2023/07/18 02:35:33;;;;;;;8.65;3.80;;;;;;;;;;5040368;28;20043;-58
2023/07/18 02:38:00;;;;;;;7.32;3.45;;;;;;;;;;5041176;28;20037;-56
2023/07/18 02:40:27;;;;;;;8.38;4.07;;;;;;;;;;5041475;28;20057;-57
2023/07/18 02:42:53;;;;;;;8.80;3.90;;;;;;;;;;5041163;28;20071;-61
2023/07/18 02:45:20;;;;;;;9.30;4.00;;;;;;;;;;5041572;28;20037;-54
2023/07/18 02:47:47;;;;;;;10.05;3.95;;;;;;;;;;5040926;28;20249;-53
2023/07/18 02:50:13;;;;;;;9.60;3.70;;;;;;;;;;5041398;28;20029;-53
2023/07/18 02:52:41;;;;;;;11.20;4.00;;;;;;;;;;5041167;28;20040;-55
2023/07/18 02:55:08;;;;;;;13.20;3.25;;;;;;;;;;5041022;28;20033;-53
2023/07/18 02:57:35;;;;;;;12.02;2.92;;;;;;;;;;5041200;28;20100;-53
2023/07/18 03:00:03;;;;;;;5.40;2.10;;;;;;;;;;5040079;28;20079;-54
2023/07/18 03:02:30;;;;;;;9.00;1.90;;;;;;;;;;5040910;28;20044;-57
2023/07/18 03:04:57;;;;;;;5.32;1.88;;;;;;;;;;5027844;28;20022;-53
2023/07/18 03:07:26;;;;;;;10.68;1.83;;;;;;;;;;5024936;28;20038;-53
2023/07/18 03:09:52;;;;;;;6.60;1.70;;;;;;;;;;5026677;28;20037;-47
2023/07/18 03:12:21;;;;;;;8.68;1.30;;;;;;;;;;5026919;28;20022;-52
2023/07/18 03:14:48;;;;;;;7.22;1.30;;;;;;;;;;5038367;28;20307;-51
2023/07/18 03:17:15;;;;;;;5.03;1.60;;;;;;;;;;5041183;28;20212;-52
2023/07/18 03:19:42;;;;;;;6.57;1.50;;;;;;;;;;5041216;28;20034;-47
2023/07/18 03:22:09;;;;;;;5.72;1.60;;;;;;;;;;5040814;28;20034;-47
2023/07/18 03:24:35;;;;;;;8.63;1.30;;;;;;;;;;5034119;28;20118;-47
2023/07/18 03:27:03;;;;;;;5.38;0.90;;;;;;;;;;5021054;28;20329;-50
2023/07/18 03:29:29;;;;;;;4.10;1.00;;;;;;;;;;5036521;28;20097;-51
2023/07/18 03:31:59;;;;;;;11.90;1.60;;;;;;;;;;5040522;28;20033;-52
2023/07/18 03:34:25;;;;;;;3.95;1.20;;;;;;;;;;5036038;28;20191;-48
2023/07/18 03:36:53;;;;;;;8.68;1.33;;;;;;;;;;5020573;28;20033;-50
2023/07/18 03:39:20;;;;;;;3.65;1.10;;;;;;;;;;5030019;28;20030;-50
2023/07/18 03:41:47;;;;;;;3.85;1.30;;;;;;;;;;5020781;28;20310;-48
2023/07/18 03:44:13;;;;;;;7.25;1.10;;;;;;;;;;5031462;28;20089;-47
2023/07/18 03:46:40;;;;;;;9.85;1.20;;;;;;;;;;5032630;27;20118;-48
2023/07/18 03:49:07;;;;;;;8.65;0.85;;;;;;;;;;5043465;28;20331;-46
2023/07/18 03:51:34;;;;;;;4.03;0.90;;;;;;;;;;5044621;28;20202;-47
2023/07/18 03:54:02;;;;;;;5.22;0.80;;;;;;;;;;5041289;28;20336;-50
2023/07/18 03:56:31;;;;;;;5.47;0.88;;;;;;;;;;5030285;28;20070;-51
2023/07/18 03:58:58;;;;;;;5.30;0.63;;;;;;;;;;5041812;27;20021;-46
2023/07/18 04:01:25;;;;;;;5.22;0.73;;;;;;;;;;5023700;28;20085;-50
2023/07/18 04:03:52;;;;;;;6.13;0.70;;;;;;;;;;5029960;27;20030;-48
2023/07/18 04:06:18;;;;;;;5.68;0.70;;;;;;;;;;5147472;27;20035;-47
2023/07/18 04:08:45;;;;;;;4.05;0.70;;;;;;;;;;5147201;27;20335;-47
2023/07/18 04:11:12;;;;;;;4.28;0.55;;;;;;;;;;5023575;28;20207;-48
2023/07/18 04:13:38;;;;;;;3.78;0.80;;;;;;;;;;5026937;28;20033;-48
2023/07/18 04:16:05;;;;;;;3.88;0.63;;;;;;;;;;5029788;28;20073;-46
2023/07/18 04:18:32;;;;;;;4.40;0.50;;;;;;;;;;5028013;28;20026;-49
2023/07/18 04:21:00;;;;;;;12.55;1.27;;;;;;;;;;5042040;28;20083;-48
2023/07/18 04:23:27;;;;;;;2.63;0.70;;;;;;;;;;5040407;28;20021;-51
2023/07/18 04:26:01;;;;;;;6.38;0.88;;;;;;;;;;5033898;28;20026;-55
2023/07/18 04:28:28;;;;;;;3.00;0.70;;;;;;;;;;5043044;28;20101;-49
2023/07/18 04:30:55;;;;;;;6.55;0.98;;;;;;;;;;5043022;28;20018;-51
2023/07/18 04:33:22;;;;;;;6.97;1.17;;;;;;;;;;5043326;28;20237;-48
2023/07/18 04:35:49;;;;;;;4.00;1.05;;;;;;;;;;5043633;28;20095;-58
2023/07/18 04:38:16;;;;;;;4.13;1.15;;;;;;;;;;5042895;28;20030;-46
2023/07/18 04:40:43;;;;;;;4.65;0.95;;;;;;;;;;5042510;28;20217;-47
2023/07/18 04:43:09;;;;;;;4.50;0.75;;;;;;;;;;5043155;28;20022;-53
2023/07/18 04:45:46;;;;;;;4.50;0.85;;;;;;;;;;5043329;28;20193;-49
2023/07/18 04:48:13;;;;;;;8.23;1.13;;;;;;;;;;5042853;28;20082;-47
2023/07/18 04:50:41;;;;;;;3.92;0.90;;;;;;;;;;5043209;28;20029;-49
2023/07/18 04:53:08;;;;;;;6.57;0.85;;;;;;;;;;5043392;28;20221;-47
2023/07/18 04:55:35;;;;;;;7.75;0.63;;;;;;;;;;5043217;28;20041;-54
2023/07/18 04:58:03;;;;;;;4.05;0.80;;;;;;;;;;5042836;28;20022;-54
2023/07/18 05:00:30;;;;;;;5.10;1.00;;;;;;;;;;5043139;28;20198;-49
2023/07/18 05:02:57;;;;;;;8.13;0.80;;;;;;;;;;5042758;28;20026;-48
2023/07/18 05:05:25;;;;;;;6.93;0.88;;;;;;;;;;5043275;28;20029;-51
2023/07/18 05:07:52;;;;;;;10.10;0.80;;;;;;;;;;5042548;28;20037;-47
2023/07/18 05:10:18;;;;;;;12.13;1.10;;;;;;;;;;5042752;28;20034;-46
2023/07/18 05:12:45;;;;;;;4.13;0.73;;;;;;;;;;5042430;28;20054;-54
2023/07/18 05:15:12;;;;;;;5.07;0.60;;;;;;;;;;5042936;28;20075;-49
2023/07/18 05:17:38;;;;;;;7.45;0.93;;;;;;;;;;5042478;28;20053;-49
2023/07/18 05:20:07;;;;;;;5.50;0.85;;;;;;;;;;5042958;28;20030;-53
2023/07/18 05:22:34;;;;;;;10.05;1.55;;;;;;;;;;5042658;28;20029;-52
2023/07/18 05:25:00;;;;;;;5.00;0.90;;;;;;;;;;5041146;28;20037;-46
2023/07/18 05:27:27;;;;;;;11.38;1.35;;;;;;;;;;5042204;28;20025;-51
2023/07/18 05:29:55;;;;;;;4.55;0.70;;;;;;;;;;5042487;28;20089;-48
2023/07/18 05:32:22;;;;;;;4.80;1.05;;;;;;;;;;5042308;28;20029;-47
2023/07/18 05:34:52;;;;;;;7.40;0.70;;;;;;;;;;5042306;28;20029;-50
2023/07/18 05:37:21;;;;;;;7.53;0.90;;;;;;;;;;5042072;28;20330;-50
2023/07/18 05:39:48;;;;;;;5.72;0.85;;;;;;;;;;5042293;28;20057;-49
2023/07/18 05:42:14;;;;;;;7.78;0.77;;;;;;;;;;5042248;28;20017;-55
2023/07/18 05:44:41;;;;;;;10.45;1.33;;;;;;;;;;5042393;28;20034;-51
2023/07/18 05:47:08;;;;;;;8.20;0.98;;;;;;;;;;5041993;28;20032;-55
2023/07/18 05:49:34;;;;;;;7.38;1.05;;;;;;;;;;5042163;28;20029;-54
2023/07/18 05:52:01;;;;;;;7.63;0.98;;;;;;;;;;5041869;28;20053;-47
2023/07/18 05:54:30;;;;;;;4.43;0.73;;;;;;;;;;5041946;28;20037;-46
2023/07/18 05:57:00;;;;;;;6.70;1.15;;;;;;;;;;5041833;28;20086;-51
2023/07/18 05:59:27;;;;;;;6.10;1.00;;;;;;;;;;5042061;28;20041;-49
2023/07/18 06:01:54;;;;;;;10.27;1.10;;;;;;;;;;5041775;28;20377;-46
2023/07/18 06:04:21;;;;;;;7.60;0.98;;;;;;;;;;5041811;28;20030;-55
2023/07/18 06:06:47;;;;;;;10.90;1.10;;;;;;;;;;5041318;28;20049;-50
2023/07/18 06:09:14;;;;;;;10.38;0.90;;;;;;;;;;5041690;28;20041;-55
2023/07/18 06:11:41;;;;;;;7.07;1.15;;;;;;;;;;5041622;28;20077;-53
2023/07/18 06:14:07;;;;;;;7.80;1.20;;;;;;;;;;5041858;28;20049;-52
2023/07/18 06:16:34;;;;;;;7.13;1.23;;;;;;;;;;5041797;28;20058;-46
2023/07/18 06:19:01;;;;;;;10.95;1.27;;;;;;;;;;5041629;28;20031;-47
2023/07/18 06:21:27;;;;;;;5.03;1.02;;;;;;;;;;5041535;28;20060;-53
2023/07/18 06:23:54;;;;;;;6.28;1.10;;;;;;;;;;5041687;28;20029;-47
2023/07/18 06:26:22;;;;;;;7.03;0.88;;;;;;;;;;5041491;28;20036;-52
2023/07/18 06:28:49;;;;;;;4.82;1.05;;;;;;;;;;5041408;28;20078;-49
2023/07/18 06:31:15;;;;;;;9.43;1.08;;;;;;;;;;5041502;28;20217;-53
2023/07/18 06:33:42;;;;;;;7.38;1.20;;;;;;;;;;5041333;28;20021;-48
2023/07/18 06:36:09;;;;;;;11.27;1.50;;;;;;;;;;5041695;28;20347;-51
2023/07/18 06:38:35;;;;;;;4.75;0.90;;;;;;;;;;5041870;28;20324;-48
2023/07/18 06:41:02;;;;;;;9.07;1.63;;;;;;;;;;5042035;28;20032;-48
2023/07/18 06:43:29;;;;;;;10.65;1.17;;;;;;;;;;5041328;28;20033;-47
2023/07/18 06:45:55;;;;;;;8.93;1.10;;;;;;;;;;5041676;28;20239;-49
2023/07/18 06:48:22;;;;;;;6.50;1.10;;;;;;;;;;5041420;28;20022;-56
2023/07/18 06:50:50;;;;;;;7.65;1.00;;;;;;;;;;5041750;28;20061;-47
2023/07/18 06:53:17;;;;;;;9.63;0.60;;;;;;;;;;5041145;28;20030;-52
2023/07/18 06:55:46;;;;;;;6.45;0.90;;;;;;;;;;5040912;28;20321;-47
2023/07/18 06:58:13;;;;;;;6.95;1.20;;;;;;;;;;5040852;28;20039;-48
2023/07/18 07:00:40;;;;;;;7.38;1.10;;;;;;;;;;5041883;28;20032;-51
2023/07/18 07:03:08;;;;;;;9.38;0.70;;;;;;;;;;5041182;28;20395;-48
2023/07/18 07:05:42;;;;;;;5.10;1.15;;;;;;;;;;5041307;28;20034;-49
2023/07/18 07:08:12;;;;;;;9.60;1.33;;;;;;;;;;5040912;28;20049;-48
2023/07/18 07:10:40;;;;;;;7.65;1.00;;;;;;;;;;5041176;28;20052;-54
2023/07/18 07:13:07;;;;;;;8.38;1.00;;;;;;;;;;5040820;28;20089;-46
2023/07/18 07:15:33;;;;;;;5.07;1.02;;;;;;;;;;5041126;28;20301;-51
2023/07/18 07:18:00;;;;;;;6.82;1.10;;;;;;;;;;5040888;28;20300;-53
2023/07/18 07:20:28;;;;;;;9.98;1.35;;;;;;;;;;5045183;28;20033;-55
2023/07/18 07:22:56;;;;;;;10.15;1.40;;;;;;;;;;5044474;28;20055;-47
2023/07/18 07:25:22;;;;;;;6.63;1.23;;;;;;;;;;5043576;28;20029;-56
2023/07/18 07:27:50;;;;;;;7.25;1.10;;;;;;;;;;5044369;28;20212;-51
2023/07/18 07:30:17;;;;;;;8.82;0.85;;;;;;;;;;5044227;28;20025;-53
2023/07/18 07:32:51;;;;;;;5.88;0.90;;;;;;;;;;5044312;28;20112;-55
2023/07/18 07:35:19;;;;;;;6.32;0.93;;;;;;;;;;5044569;28;20246;-59
2023/07/18 07:37:46;;;;;;;7.75;1.30;;;;;;;;;;5044260;28;20025;-52
2023/07/18 07:40:13;;;;;;;9.77;1.08;;;;;;;;;;5043920;28;20022;-50
2023/07/18 07:42:40;;;;;;;5.65;0.77;;;;;;;;;;5044214;28;20033;-54
2023/07/18 07:45:07;;;;;;;5.43;0.98;;;;;;;;;;5044458;28;20097;-54
2023/07/18 07:47:34;;;;;;;7.32;1.00;;;;;;;;;;5043801;28;20017;-50
2023/07/18 07:50:02;;;;;;;6.32;1.00;;;;;;;;;;5044354;28;20335;-52
2023/07/18 07:52:29;;;;;;;5.22;0.85;;;;;;;;;;5043835;28;20036;-55
2023/07/18 07:54:56;;;;;;;8.30;1.35;;;;;;;;;;5044230;28;20036;-53
2023/07/18 07:57:23;;;;;;;4.25;0.80;;;;;;;;;;5043960;28;20026;-53
2023/07/18 07:59:51;;;;;;;7.85;1.02;;;;;;;;;;5044174;28;20033;-57
2023/07/18 08:02:19;;;;;;;6.15;0.98;;;;;;;;;;5043919;28;20013;-51
2023/07/18 08:04:46;;;;;;;6.93;1.13;;;;;;;;;;5044277;28;20025;-51
2023/07/18 08:07:13;;;;;;;7.10;0.85;;;;;;;;;;5043569;28;20038;-52
2023/07/18 08:09:40;;;;;;;10.98;1.38;;;;;;;;;;5043507;28;20057;-55
2023/07/18 08:12:07;;;;;;;5.13;0.88;;;;;;;;;;5043504;28;20025;-54
2023/07/18 08:14:37;;;;;;;7.43;0.80;;;;;;;;;;5044168;28;20060;-52
2023/07/18 08:17:04;;;;;;;6.13;0.98;;;;;;;;;;5043197;28;20361;-59
2023/07/18 08:19:36;;;;;;;8.13;1.08;;;;;;;;;;5043839;28;20038;-50
2023/07/18 08:22:03;;;;;;;6.65;1.17;;;;;;;;;;5043632;28;20025;-55
2023/07/18 08:24:31;;;;;;;7.72;1.27;;;;;;;;;;5043389;28;20085;-54
2023/07/18 08:26:58;;;;;;;9.88;1.33;;;;;;;;;;5043553;28;20029;-55
2023/07/18 08:29:25;;;;;;;5.57;1.30;;;;;;;;;;5042913;28;20046;-49
2023/07/18 08:31:54;;;;;;;8.15;1.20;;;;;;;;;;5043149;28;20051;-49
2023/07/18 08:34:21;;;;;;;10.82;1.48;;;;;;;;;;5043301;28;20041;-53
2023/07/18 08:36:47;;;;;;;7.40;1.10;;;;;;;;;;5043181;28;20033;-50
2023/07/18 08:39:15;;;;;;;5.80;1.27;;;;;;;;;;5043047;28;20077;-47
2023/07/18 08:41:45;;;;;;;10.13;1.27;;;;;;;;;;5043410;28;20029;-55
2023/07/18 08:44:16;;;;;;;10.27;1.60;;;;;;;;;;5043158;28;20102;-51
2023/07/18 08:46:48;;;;;;;7.22;1.58;;;;;;;;;;5043173;28;20029;-53
2023/07/18 08:49:17;;;;;;;7.78;1.20;;;;;;;;;;5043762;28;20041;-52
2023/07/18 08:51:48;;;;;;;5.88;1.02;;;;;;;;;;5042865;28;20225;-59
2023/07/18 08:54:15;;;;;;;16.88;1.73;;;;;;;;;;5043408;28;20100;-56
2023/07/18 08:56:43;;;;;;;9.32;1.35;;;;;;;;;;5042994;28;20021;-50
2023/07/18 08:59:10;;;;;;;8.25;1.45;;;;;;;;;;5042571;28;20029;-48
2023/07/18 09:01:45;;;;;;;11.52;1.63;;;;;;;;;;5043177;28;20037;-49
2023/07/18 09:04:12;;;;;;;7.35;1.17;;;;;;;;;;5042872;28;20028;-47
2023/07/18 09:06:47;;;;;;;5.65;1.15;;;;;;;;;;5042469;28;20037;-49
2023/07/18 09:09:18;;;;;;;7.40;1.33;;;;;;;;;;5042481;28;20112;-56
2023/07/18 09:11:58;;;;;;;5.47;0.82;;;;;;;;;;5042363;28;20317;-49
2023/07/18 09:14:34;;;;;;;6.50;1.20;;;;;;;;;;5042869;28;20100;-55
2023/07/18 09:17:03;;;;;;;9.73;1.05;;;;;;;;;;5042385;28;20325;-48
2023/07/18 09:19:44;;;;;;;8.02;1.80;;;;;;;;;;5042906;28;20025;-51
2023/07/18 09:22:11;;;;;;;8.32;1.52;;;;;;;;;;5042509;28;20025;-50
2023/07/18 09:24:38;;;;;;;8.70;1.30;;;;;;;;;;5042827;28;20063;-47
2023/07/18 09:27:10;;;;;;;10.25;1.45;;;;;;;;;;5042774;28;20049;-49
2023/07/18 09:29:37;;;;;;;9.52;1.33;;;;;;;;;;5042547;28;20033;-51
2023/07/18 09:32:04;;;;;;;10.50;1.50;;;;;;;;;;5042093;28;20259;-50
2023/07/18 09:34:31;;;;;;;6.05;1.00;;;;;;;;;;5042592;28;20069;-54
2023/07/18 09:37:03;;;;;;;6.65;1.10;;;;;;;;;;5042000;28;20022;-48
2023/07/18 09:39:30;;;;;;;7.20;1.00;;;;;;;;;;5042334;28;20032;-46
2023/07/18 09:41:57;;;;;;;7.47;1.92;;;;;;;;;;5041328;28;20381;-49
2023/07/18 09:44:26;;;;;;;8.55;2.65;;;;;;;;;;5041967;28;20089;-52
2023/07/18 09:46:53;;;;;;;7.80;2.63;;;;;;;;;;5042261;28;20074;-55
2023/07/18 09:49:21;;;;;;;5.32;2.42;;;;;;;;;;5042336;28;20025;-48
2023/07/18 09:51:52;;;;;;;6.90;2.33;;;;;;;;;;5042336;28;20209;-49
2023/07/18 09:54:20;;;;;;;13.60;1.77;;;;;;;;;;5042437;28;20033;-49
2023/07/18 09:56:47;;;;;;;6.63;1.50;;;;;;;;;;5042807;28;20081;-49
2023/07/18 09:59:14;;;;;;;8.55;1.90;;;;;;;;;;5041907;28;20021;-47
2023/07/18 10:01:41;;;;;;;12.05;1.38;;;;;;;;;;5042421;28;20084;-49
2023/07/18 10:04:08;;;;;;;12.60;1.67;;;;;;;;;;5042068;28;20030;-47
2023/07/18 10:06:35;;;;;;;6.47;1.30;;;;;;;;;;5041742;28;20022;-51
2023/07/18 10:09:02;;;;;;;5.28;1.33;;;;;;;;;;5041954;28;20042;-49
2023/07/18 10:11:29;;;;;;;9.30;1.30;;;;;;;;;;5041732;28;20041;-52
2023/07/18 10:13:56;;;;;;;11.40;1.85;;;;;;;;;;5041450;28;20017;-49
2023/07/18 10:16:26;;;;;;;8.48;1.50;;;;;;;;;;5042133;28;20040;-50
2023/07/18 10:18:53;;;;;;;5.65;1.15;;;;;;;;;;5041795;28;20021;-51
2023/07/18 10:21:30;;;;;;;7.45;1.23;;;;;;;;;;5041530;28;20103;-46
2023/07/18 10:23:57;;;;;;;11.48;1.77;;;;;;;;;;5041993;28;20092;-49
2023/07/18 10:26:33;;;;;;;5.18;1.48;;;;;;;;;;5041673;28;20025;-54
2023/07/18 10:29:04;;;;;;;13.50;2.13;;;;;;;;;;5041636;28;20025;-50
2023/07/18 10:31:33;;;;;;;8.10;1.27;;;;;;;;;;5041695;28;20181;-47
2023/07/18 10:34:16;;;;;;;13.05;2.33;;;;;;;;;;5041199;28;20026;-51
2023/07/18 10:36:42;;;;;;;;;;;;;;;;;;5041765;28;20034;-46
2023/07/18 10:39:11;;;;;;;6.70;1.60;;;;;;;;;;5041850;28;19972;-54
2023/07/18 10:41:37;;;;;;;8.27;1.60;;;;;;;;;;5041247;28;20040;-47
2023/07/18 10:44:04;;;;;;;8.20;1.55;;;;;;;;;;5041345;28;20237;-45
2023/07/18 10:46:38;;;;;;;9.93;1.50;;;;;;;;;;5041204;28;20030;-55
2023/07/18 10:49:05;;;;;;;8.07;1.88;;;;;;;;;;5041525;28;20305;-49
2023/07/18 10:51:33;;;;;;;4.78;1.40;;;;;;;;;;5041099;28;20035;-47
2023/07/18 10:53:59;;;;;;;8.90;1.52;;;;;;;;;;5040983;28;20070;-56
2023/07/18 10:56:26;;;;;;;8.32;1.40;;;;;;;;;;5041154;28;20022;-46
2023/07/18 10:58:57;;;;;;;6.53;1.40;;;;;;;;;;5041112;28;20067;-45
2023/07/18 11:01:25;;;;;;;7.03;1.52;;;;;;;;;;5041132;28;20086;-49
2023/07/18 11:03:51;;;;;;;11.43;2.00;;;;;;;;;;5041226;28;20024;-55
2023/07/18 11:06:21;;;;;;;5.38;1.35;;;;;;;;;;5041334;28;20017;-50
2023/07/18 11:08:48;;;;;;;7.60;1.70;;;;;;;;;;5040653;28;20356;-49
2023/07/18 11:11:17;;;;;;;7.20;1.50;;;;;;;;;;5040848;28;20313;-51
2023/07/18 11:13:44;;;;;;;11.02;1.80;;;;;;;;;;5040811;28;20273;-50
2023/07/18 11:16:11;;;;;;;6.75;1.60;;;;;;;;;;5040807;28;20432;-51
2023/07/18 11:18:39;;;;;;;10.90;1.85;;;;;;;;;;5040829;28;20073;-52
2023/07/18 11:21:06;;;;;;;8.15;1.67;;;;;;;;;;5041530;28;20037;-51
2023/07/18 11:23:34;;;;;;;11.32;1.73;;;;;;;;;;5040800;28;20053;-50
2023/07/18 11:26:00;;;;;;;11.57;2.33;;;;;;;;;;5041210;28;20348;-49
2023/07/18 11:28:33;;;;;;;5.50;2.08;;;;;;;;;;5041201;28;20033;-54
2023/07/18 11:31:00;;;;;;;8.05;2.08;;;;;;;;;;5041052;28;20044;-52
2023/07/18 11:33:30;;;;;;;8.18;2.55;;;;;;;;;;5040434;28;20092;-52
2023/07/18 11:36:05;;;;;;;7.63;1.80;;;;;;;;;;5041516;28;20038;-52
2023/07/18 11:38:33;;;;;;;10.10;2.03;;;;;;;;;;5040343;28;20064;-54
2023/07/18 11:41:00;;;;;;;5.10;1.58;;;;;;;;;;5041384;28;20131;-50
2023/07/18 11:43:30;;;;;;;10.38;1.65;;;;;;;;;;5040029;28;20118;-51
2023/07/18 11:45:57;;;;;;;8.10;1.90;;;;;;;;;;5041646;28;20084;-53
2023/07/18 11:48:25;;;;;;;8.35;2.03;;;;;;;;;;5040591;28;20309;-54
2023/07/18 11:50:53;;;;;;;13.70;2.28;;;;;;;;;;5029955;28;20313;-56
2023/07/18 11:53:26;;;;;;;4.97;1.70;;;;;;;;;;5020505;28;20048;-46
2023/07/18 11:55:54;;;;;;;7.05;1.90;;;;;;;;;;5020820;28;20244;-51
2023/07/18 11:58:21;;;;;;;9.57;1.90;;;;;;;;;;5032551;28;20097;-47
2023/07/18 12:00:49;;;;;;;10.10;1.80;;;;;;;;;;5021312;28;20201;-53
2023/07/18 12:03:16;;;;;;;9.77;2.25;;;;;;;;;;5021265;28;20147;-55
2023/07/18 12:05:43;;;;;;;6.78;1.75;;;;;;;;;;5024486;28;20030;-57
2023/07/18 12:08:09;;;;;;;6.13;1.58;;;;;;;;;;5024462;28;20037;-53
2023/07/18 12:10:36;;;;;;;7.60;1.40;;;;;;;;;;5025014;28;20037;-56
2023/07/18 12:13:03;;;;;;;6.63;1.65;;;;;;;;;;5023615;28;20052;-55
2023/07/18 12:15:30;;;;;;;6.40;1.58;;;;;;;;;;5022050;28;20049;-51
2023/07/18 12:17:57;;;;;;;5.78;1.45;;;;;;;;;;5022110;28;20224;-51
2023/07/18 12:20:25;;;;;;;4.78;1.30;;;;;;;;;;5021157;28;20050;-54
2023/07/18 12:22:52;;;;;;;5.40;1.30;;;;;;;;;;5022025;28;20333;-52
2023/07/18 12:25:19;;;;;;;8.90;1.42;;;;;;;;;;5022330;28;20438;-54
2023/07/18 12:27:45;;;;;;;4.88;1.10;;;;;;;;;;5022387;28;20046;-50
2023/07/18 12:30:12;;;;;;;3.35;1.13;;;;;;;;;;5024653;28;20081;-50
2023/07/18 12:32:39;;;;;;;7.65;1.83;;;;;;;;;;5024171;28;20326;-52
2023/07/18 12:35:06;;;;;;;4.20;0.90;;;;;;;;;;5024429;28;20049;-53
2023/07/18 12:37:32;;;;;;;4.90;1.20;;;;;;;;;;5024180;28;20240;-51
2023/07/18 12:39:59;;;;;;;5.32;1.50;;;;;;;;;;5024516;28;20037;-53
2023/07/18 12:42:26;;;;;;;6.45;1.30;;;;;;;;;;5024084;28;20030;-53
2023/07/18 12:44:53;;;;;;;4.95;1.52;;;;;;;;;;5024361;28;20022;-54
2023/07/18 12:47:20;;;;;;;4.95;1.13;;;;;;;;;;5024177;28;20038;-52
2023/07/18 12:49:47;;;;;;;5.57;1.20;;;;;;;;;;5024077;28;20034;-52
2023/07/18 12:52:14;;;;;;;5.00;1.30;;;;;;;;;;5023639;28;20018;-62
2023/07/18 12:54:41;;;;;;;3.58;1.42;;;;;;;;;;5023795;28;20057;-51
2023/07/18 12:57:07;;;;;;;3.90;1.40;;;;;;;;;;5023373;28;20068;-60
2023/07/18 12:59:34;;;;;;;2.90;1.20;;;;;;;;;;5023645;28;20074;-57
2023/07/18 13:02:01;;;;;;;4.88;1.38;;;;;;;;;;5022831;28;20182;-58
2023/07/18 13:04:28;;;;;;;3.67;1.30;;;;;;;;;;5023712;28;20310;-54
2023/07/18 13:06:55;;;;;;;4.43;1.00;;;;;;;;;;5023802;28;20181;-53
2023/07/18 13:09:22;;;;;;;3.08;1.40;;;;;;;;;;5023398;28;20073;-51
2023/07/18 13:11:49;;;;;;;5.72;1.33;;;;;;;;;;5023166;28;20030;-53
2023/07/18 13:14:20;;;;;;;3.58;1.10;;;;;;;;;;5023486;28;20018;-51
2023/07/18 13:16:47;;;;;;;6.03;1.50;;;;;;;;;;5023065;28;20037;-56
2023/07/18 13:19:13;;;;;;;3.70;1.25;;;;;;;;;;5023155;28;20042;-52
2023/07/18 13:21:40;;;;;;;4.15;1.58;;;;;;;;;;5023408;28;20014;-52
2023/07/18 13:24:07;;;;;;;4.30;1.40;;;;;;;;;;5022950;28;20097;-52
2023/07/18 13:26:34;;;;;;;5.95;1.65;;;;;;;;;;5023263;28;20053;-50
2023/07/18 13:29:00;;;;;;;4.05;1.48;;;;;;;;;;5023359;28;20024;-51
2023/07/18 13:31:27;;;;;;;6.00;1.60;;;;;;;;;;5023532;28;20051;-52
2023/07/18 13:33:54;;;;;;;6.15;1.70;;;;;;;;;;5023107;28;20042;-53
2023/07/18 13:36:20;;;;;;;3.95;1.23;;;;;;;;;;5023297;28;20212;-57
2023/07/18 13:38:47;;;;;;;5.15;1.52;;;;;;;;;;5022835;28;20026;-52
2023/07/18 13:41:14;;;;;;;5.32;1.58;;;;;;;;;;5023145;28;20026;-56
2023/07/18 13:43:42;;;;;;;4.63;1.77;;;;;;;;;;5023049;28;20014;-55
2023/07/18 13:46:09;;;;;;;3.60;1.50;;;;;;;;;;5023725;28;20041;-52
2023/07/18 13:48:36;;;;;;;4.60;1.60;;;;;;;;;;5022785;28;20037;-54
2023/07/18 13:51:03;;;;;;;6.63;1.50;;;;;;;;;;5023387;28;20090;-57
2023/07/18 13:53:30;;;;;;;6.28;1.67;;;;;;;;;;5022809;28;20053;-57
2023/07/18 13:55:56;;;;;;;3.72;1.52;;;;;;;;;;5022528;28;20041;-53
2023/07/18 13:58:23;;;;;;;5.03;1.67;;;;;;;;;;5022601;28;20026;-54
2023/07/18 14:00:50;;;;;;;5.93;1.90;;;;;;;;;;5023239;28;20038;-56
2023/07/18 14:03:17;;;;;;;5.68;1.50;;;;;;;;;;5022844;28;20034;-54
2023/07/18 14:05:43;;;;;;;5.78;1.92;;;;;;;;;;5023326;28;20029;-54
2023/07/18 14:08:10;;;;;;;5.47;2.50;;;;;;;;;;5022655;28;20045;-56
2023/07/18 14:10:37;;;;;;;9.55;5.43;;;;;;;;;;5022477;28;20065;-52
2023/07/18 14:13:04;;;;;;;14.00;7.13;;;;;;;;;;5022822;28;20028;-55
2023/07/18 14:15:30;;;;;;;12.95;7.40;;;;;;;;;;5022559;28;20064;-53
2023/07/18 14:17:57;;;;;;;17.58;10.52;;;;;;;;;;5022625;28;20026;-54
2023/07/18 14:20:24;;;;;;;13.60;7.88;;;;;;;;;;5023008;28;20033;-53
2023/07/18 14:22:51;;;;;;;13.05;9.43;;;;;;;;;;5022400;28;20214;-54
2023/07/18 14:25:18;;;;;;;17.70;8.88;;;;;;;;;;5022565;28;20056;-49
2023/07/18 14:27:45;;;;;;;13.55;7.25;;;;;;;;;;5034871;28;20206;-54
2023/07/18 14:30:12;;;;;;;10.93;6.40;;;;;;;;;;5039657;28;20041;-52
2023/07/18 14:32:38;;;;;;;9.55;5.70;;;;;;;;;;5041548;28;20059;-51
2023/07/18 14:35:07;;;;;;;9.00;4.80;;;;;;;;;;5041545;28;20049;-44
2023/07/18 14:37:33;;;;;;;8.70;4.60;;;;;;;;;;5041333;28;20025;-52
2023/07/18 14:40:04;;;;;;;8.05;4.10;;;;;;;;;;5041560;28;20034;-48
2023/07/18 14:42:34;;;;;;;9.38;4.15;;;;;;;;;;5041443;28;20022;-46
2023/07/18 14:45:01;;;;;;;6.68;3.00;;;;;;;;;;5039288;28;20522;-48